Time;durP1;ratioP1;P1;durP2;ratioP2;P2;SDS_P1;SDS_P2;PMS_P1;PMS_P2;Temp;Humidity;BMP_temperature;BMP_pressure;BME280_temperature;BME280_humidity;BME280_pressure;Samples;Min_cycle;Max_cycle;Signal;HPM_P1;HPM_P2
2021/05/15 00:00:55;;;;;;;0.30;0.30;;;;;;;8.57;78.44;100843.13;5000391;28;20047;-72
2021/05/15 00:03:21;;;;;;;0.47;0.47;;;;;;;8.35;78.64;100803.09;4985857;28;20768;-70
2021/05/15 00:05:46;;;;;;;0.30;0.30;;;;;;;8.46;78.81;100813.56;4985650;28;20421;-70
2021/05/15 00:08:13;;;;;;;0.30;0.30;;;;;;;8.37;78.82;100803.81;4986609;28;20042;-70
2021/05/15 00:10:38;;;;;;;0.30;0.30;;;;;;;8.51;78.76;100826.22;4985204;28;20628;-70
2021/05/15 00:13:04;;;;;;;0.40;0.40;;;;;;;8.55;78.57;100829.44;4985953;28;20049;-72
2021/05/15 00:15:30;;;;;;;0.30;0.30;;;;;;;8.46;78.07;100828.31;4984625;28;20043;-70
2021/05/15 00:17:55;;;;;;;0.30;0.30;;;;;;;8.48;79.49;100827.28;4982513;28;20054;-70
2021/05/15 00:20:22;;;;;;;0.30;0.30;;;;;;;8.42;78.44;100813.88;4984257;28;20038;-70
2021/05/15 00:22:48;;;;;;;0.20;0.20;;;;;;;8.52;79.00;100825.28;4985158;28;20050;-70
2021/05/15 00:25:15;;;;;;;0.20;0.20;;;;;;;8.51;78.67;100825.41;4985387;28;20389;-70
2021/05/15 00:27:41;;;;;;;0.20;0.20;;;;;;;8.42;79.12;100806.91;4982917;28;20059;-70
2021/05/15 00:30:09;;;;;;;0.25;0.25;;;;;;;8.39;78.45;100795.91;4984734;28;20444;-70
2021/05/15 00:32:34;;;;;;;0.20;0.20;;;;;;;8.45;79.02;100809.31;4967434;28;20427;-70
2021/05/15 00:35:00;;;;;;;0.30;0.30;;;;;;;8.27;79.55;100784.63;4983589;28;20118;-70
2021/05/15 00:37:26;;;;;;;0.20;0.20;;;;;;;8.32;79.16;100805.03;4982389;28;20039;-70
2021/05/15 00:39:52;;;;;;;0.30;0.25;;;;;;;8.31;79.12;100806.81;4984559;28;20042;-71
2021/05/15 00:42:17;;;;;;;0.22;0.22;;;;;;;8.27;79.17;100800.19;4982309;28;20038;-73
2021/05/15 00:44:44;;;;;;;0.25;0.25;;;;;;;8.25;79.38;100794.25;4984715;28;20042;-70
2021/05/15 00:47:16;;;;;;;0.17;0.17;;;;;;;8.23;79.81;100810.84;4982782;28;20030;-71
2021/05/15 00:49:43;;;;;;;0.30;0.30;;;;;;;8.09;79.83;100796.25;4983902;28;20109;-70
2021/05/15 00:52:09;;;;;;;0.30;0.30;;;;;;;8.05;80.07;100802.56;4982513;28;20471;-70
2021/05/15 00:54:37;;;;;;;0.20;0.20;;;;;;;8.06;80.50;100810.22;4984573;28;20092;-70
2021/05/15 00:57:03;;;;;;;0.20;0.20;;;;;;;7.88;79.99;100777.75;4982559;28;20129;-70
2021/05/15 00:59:29;;;;;;;0.20;0.20;;;;;;;7.99;79.88;100810.75;4985128;28;20452;-70
2021/05/15 01:01:54;;;;;;;0.20;0.20;;;;;;;7.77;80.26;100798.41;4985751;28;20459;-70
2021/05/15 01:04:20;;;;;;;1.27;0.30;;;;;;;7.86;80.60;100821.94;4983738;28;20088;-70
2021/05/15 01:06:45;;;;;;;0.20;0.20;;;;;;;7.85;80.43;100796.94;4966668;28;20471;-70
2021/05/15 01:09:11;;;;;;;0.20;0.20;;;;;;;7.85;80.74;100811.66;4982364;28;20519;-70
2021/05/15 01:11:36;;;;;;;0.22;0.22;;;;;;;7.51;80.36;100766.41;4984038;28;20041;-70
2021/05/15 01:14:04;;;;;;;0.47;0.30;;;;;;;7.68;80.66;100793.81;4981526;28;20415;-69
2021/05/15 01:16:31;;;;;;;0.20;0.20;;;;;;;7.67;80.35;100790.38;4982994;28;20042;-70
2021/05/15 01:18:58;;;;;;;0.30;0.30;;;;;;;7.62;80.13;100789.88;4982836;28;20042;-70
2021/05/15 01:21:24;;;;;;;0.20;0.20;;;;;;;7.58;80.65;100799.63;4982093;28;20042;-71
2021/05/15 01:23:50;;;;;;;0.30;0.30;;;;;;;7.53;80.68;100800.81;4983329;28;20482;-70
2021/05/15 01:26:27;;;;;;;0.20;0.20;;;;;;;7.47;80.73;100790.88;4981052;28;20069;-70
2021/05/15 01:28:56;;;;;;;0.30;0.30;;;;;;;7.49;80.94;100792.44;4982598;28;20486;-70
2021/05/15 01:31:23;;;;;;;0.20;0.20;;;;;;;7.42;80.86;100780.00;4981374;28;20467;-70
2021/05/15 01:33:49;;;;;;;0.20;0.20;;;;;;;7.56;80.95;100804.06;4984111;28;20140;-70
2021/05/15 01:36:15;;;;;;;0.30;0.30;;;;;;;7.58;81.78;100801.38;4984597;28;20073;-70
2021/05/15 01:38:41;;;;;;;0.20;0.20;;;;;;;7.65;81.71;100807.81;4982843;28;20046;-70
2021/05/15 01:41:09;;;;;;;0.20;0.20;;;;;;;7.61;81.31;100783.03;4950383;28;20041;-70
2021/05/15 01:43:35;;;;;;;0.20;0.20;;;;;;;7.71;81.44;100801.38;4983496;28;20238;-71
2021/05/15 01:46:02;;;;;;;0.30;0.30;;;;;;;7.70;81.45;100803.13;4994015;28;20038;-70
2021/05/15 01:48:28;;;;;;;0.20;0.20;;;;;;;7.65;81.38;100786.25;4981469;28;20050;-70
2021/05/15 01:51:13;;;;;;;0.20;0.20;;;;;;;7.56;81.21;100761.78;4998766;28;20054;-70
2021/05/15 01:53:44;;;;;;;0.20;0.20;;;;;;;7.73;81.19;100776.22;4980402;28;20087;-70
2021/05/15 01:56:12;;;;;;;0.20;0.20;;;;;;;7.83;80.57;100790.19;4983044;28;20504;-70
2021/05/15 01:58:38;;;;;;;0.20;0.20;;;;;;;7.74;81.37;100765.75;4983619;28;20069;-69
2021/05/15 02:01:05;;;;;;;0.30;0.30;;;;;;;7.84;82.00;100777.13;4983006;28;20030;-70
2021/05/15 02:03:32;;;;;;;0.20;0.20;;;;;;;7.71;81.04;100752.13;4995322;28;20038;-70
2021/05/15 02:05:58;;;;;;;0.20;0.20;;;;;;;7.89;81.29;100779.41;4981752;28;20153;-70
2021/05/15 02:08:24;;;;;;;0.20;0.20;;;;;;;7.89;80.38;100779.41;4982702;28;20045;-70
2021/05/15 02:10:51;;;;;;;0.30;0.30;;;;;;;7.90;81.00;100775.91;4982305;28;20568;-70
2021/05/15 02:13:18;;;;;;;0.20;0.20;;;;;;;7.67;81.07;100741.13;4982054;28;20030;-70
2021/05/15 02:15:48;;;;;;;0.30;0.30;;;;;;;7.76;80.08;100760.44;4981493;28;20157;-70
2021/05/15 02:18:15;;;;;;;0.30;0.30;;;;;;;7.67;80.85;100738.56;4982519;28;20149;-70
2021/05/15 02:20:42;;;;;;;0.20;0.20;;;;;;;7.75;80.48;100744.06;4983201;28;20038;-69
2021/05/15 02:23:10;;;;;;;0.20;0.20;;;;;;;7.76;81.19;100753.50;4983493;28;20430;-70
2021/05/15 02:25:36;;;;;;;0.30;0.30;;;;;;;7.85;81.37;100754.63;4979111;28;20042;-70
2021/05/15 02:28:02;;;;;;;0.32;0.30;;;;;;;7.86;80.88;100753.69;4982451;28;20046;-70
2021/05/15 02:30:29;;;;;;;0.30;0.30;;;;;;;7.87;80.80;100748.41;4980557;28;20117;-70
2021/05/15 02:32:54;;;;;;;0.30;0.30;;;;;;;7.89;81.29;100750.88;4983080;28;20038;-70
2021/05/15 02:35:21;;;;;;;0.25;0.25;;;;;;;7.83;81.38;100746.97;4985789;28;20396;-70
2021/05/15 02:37:47;;;;;;;0.20;0.20;;;;;;;7.77;81.43;100734.41;4982488;28;20053;-70
2021/05/15 02:40:17;;;;;;;0.20;0.20;;;;;;;7.82;81.15;100739.28;4980893;28;20053;-69
2021/05/15 02:42:42;;;;;;;0.22;0.22;;;;;;;7.81;82.08;100738.47;4984658;28;20120;-69
2021/05/15 02:45:11;;;;;;;0.30;0.30;;;;;;;7.59;81.77;100696.78;4980643;28;20042;-70
2021/05/15 02:47:36;;;;;;;0.20;0.20;;;;;;;7.47;81.45;100682.06;4978399;28;20088;-70
2021/05/15 02:50:04;;;;;;;0.20;0.20;;;;;;;7.49;81.93;100678.41;4965236;28;20042;-70
2021/05/15 02:52:30;;;;;;;0.22;0.22;;;;;;;7.73;81.19;100720.00;4981564;28;20030;-70
2021/05/15 02:54:55;;;;;;;0.20;0.20;;;;;;;7.72;81.63;100717.50;4980431;28;20072;-70
2021/05/15 02:57:21;;;;;;;0.22;0.22;;;;;;;7.64;81.09;100715.44;4983881;28;20405;-69
2021/05/15 02:59:46;;;;;;;0.20;0.20;;;;;;;7.67;81.71;100715.22;4982116;28;20393;-70
2021/05/15 03:02:12;;;;;;;0.20;0.20;;;;;;;7.71;80.33;100710.66;4982898;28;20077;-70
2021/05/15 03:04:37;;;;;;;0.20;0.20;;;;;;;7.70;81.44;100706.41;4982160;28;20050;-70
2021/05/15 03:07:03;;;;;;;0.20;0.20;;;;;;;7.68;81.42;100716.88;4981301;28;20052;-70
2021/05/15 03:09:28;;;;;;;0.20;0.20;;;;;;;7.53;81.06;100695.41;4980773;28;20065;-70
2021/05/15 03:11:54;;;;;;;0.30;0.30;;;;;;;7.53;81.47;100697.19;4981298;28;20150;-70
2021/05/15 03:14:19;;;;;;;0.30;0.30;;;;;;;7.35;81.94;100669.91;4982569;28;20484;-70
2021/05/15 03:16:45;;;;;;;0.30;0.30;;;;;;;7.50;82.19;100702.56;4964293;28;20034;-70
2021/05/15 03:19:11;;;;;;;0.20;0.20;;;;;;;7.29;82.06;100676.34;4980972;28;20605;-70
2021/05/15 03:21:36;;;;;;;0.20;0.20;;;;;;;7.34;82.13;100687.22;5006261;28;20035;-70
2021/05/15 03:24:02;;;;;;;0.30;0.30;;;;;;;7.38;82.09;100690.44;4982661;28;20057;-70
2021/05/15 03:26:28;;;;;;;0.20;0.20;;;;;;;7.33;82.65;100690.72;4981886;28;20073;-70
2021/05/15 03:28:54;;;;;;;0.40;0.30;;;;;;;7.26;82.80;100685.16;4981611;28;20065;-70
2021/05/15 03:31:19;;;;;;;0.30;0.30;;;;;;;7.30;82.69;100675.41;4982847;28;20153;-70
2021/05/15 03:33:45;;;;;;;0.30;0.30;;;;;;;7.23;82.84;100662.03;4981117;28;20042;-69
2021/05/15 03:36:10;;;;;;;0.20;0.20;;;;;;;7.07;82.97;100638.09;4982557;28;20144;-69
2021/05/15 03:38:36;;;;;;;0.30;0.30;;;;;;;7.25;82.91;100674.88;4994646;28;20083;-69
2021/05/15 03:41:02;;;;;;;0.30;0.30;;;;;;;7.20;83.15;100674.38;4982168;28;20050;-69
2021/05/15 03:43:27;;;;;;;0.28;0.28;;;;;;;7.18;83.32;100673.63;4981754;28;20471;-69
2021/05/15 03:45:53;;;;;;;0.30;0.30;;;;;;;7.14;82.68;100667.81;4965081;28;20132;-70
2021/05/15 03:48:21;;;;;;;0.20;0.20;;;;;;;7.09;83.03;100653.53;4982325;28;20069;-69
2021/05/15 03:50:48;;;;;;;0.30;0.30;;;;;;;7.21;82.45;100679.44;4996778;28;20513;-71
2021/05/15 03:53:14;;;;;;;0.30;0.30;;;;;;;7.20;82.38;100684.72;4997626;28;20030;-70
2021/05/15 03:55:41;;;;;;;0.30;0.30;;;;;;;6.97;83.11;100658.56;4980757;28;20049;-70
2021/05/15 03:58:06;;;;;;;0.30;0.30;;;;;;;7.03;82.52;100661.69;4985773;28;20034;-70
2021/05/15 04:00:32;;;;;;;0.40;0.40;;;;;;;6.98;83.13;100662.81;4984528;28;20034;-70
2021/05/15 04:02:58;;;;;;;0.75;0.40;;;;;;;7.03;82.95;100675.47;4985823;28;20583;-70
2021/05/15 04:05:23;;;;;;;0.38;0.38;;;;;;;7.11;82.83;100682.72;4968403;28;20416;-69
2021/05/15 04:07:49;;;;;;;0.40;0.40;;;;;;;6.97;83.38;100668.09;4984354;28;20363;-70
2021/05/15 04:10:14;;;;;;;0.50;0.30;;;;;;;7.05;83.51;100685.72;4985492;28;20068;-70
2021/05/15 04:12:50;;;;;;;0.40;0.40;;;;;;;7.10;83.17;100689.66;4985585;28;20054;-70
2021/05/15 04:15:33;;;;;;;0.40;0.40;;;;;;;6.97;83.01;100655.13;4982109;28;20038;-70
2021/05/15 04:18:10;;;;;;;0.30;0.30;;;;;;;7.12;82.47;100674.84;4984591;28;20038;-70
2021/05/15 04:20:39;;;;;;;0.30;0.30;;;;;;;7.22;83.27;100683.69;4983306;28;20704;-69
2021/05/15 04:23:06;;;;;;;0.50;0.40;;;;;;;7.26;83.07;100679.97;4986227;28;20452;-69
2021/05/15 04:25:32;;;;;;;0.30;0.30;;;;;;;7.35;82.68;100667.31;4984491;28;20030;-71
2021/05/15 04:27:58;;;;;;;0.40;0.40;;;;;;;7.37;nan;100658.53;4984873;28;20045;-70
2021/05/15 04:30:25;;;;;;;0.32;0.32;;;;;;;7.42;82.05;100656.47;4982429;28;20396;-70
2021/05/15 04:32:51;;;;;;;0.40;0.40;;;;;;;7.55;81.58;100669.44;4983490;28;20030;-70
2021/05/15 04:35:17;;;;;;;0.50;0.40;;;;;;;7.35;81.34;100625.88;4984367;28;20042;-67
2021/05/15 04:37:43;;;;;;;0.40;0.40;;;;;;;7.44;81.38;100639.03;4982706;28;20085;-67
2021/05/15 04:40:09;;;;;;;0.25;0.25;;;;;;;7.62;81.16;100659.47;4985754;28;20042;-67
2021/05/15 04:42:37;;;;;;;0.30;0.30;;;;;;;7.68;81.36;100661.63;4997601;28;20554;-67
2021/05/15 04:45:08;;;;;;;0.30;0.30;;;;;;;7.68;81.23;100652.09;4984712;28;20049;-67
2021/05/15 04:47:33;;;;;;;0.40;0.40;;;;;;;7.73;81.75;100646.59;4985320;28;20348;-67
2021/05/15 04:49:59;;;;;;;0.40;0.40;;;;;;;7.84;81.25;100655.28;4984444;28;20038;-67
2021/05/15 04:52:25;;;;;;;0.40;0.40;;;;;;;7.87;80.47;100652.47;5000031;28;20109;-67
2021/05/15 04:54:51;;;;;;;0.30;0.30;;;;;;;7.95;80.63;100651.97;4984938;28;20061;-67
2021/05/15 04:57:16;;;;;;;0.30;0.30;;;;;;;7.96;80.73;100660.56;4983653;28;20351;-67
2021/05/15 04:59:43;;;;;;;0.22;0.22;;;;;;;7.92;81.03;100662.56;4983504;28;20047;-67
2021/05/15 05:02:08;;;;;;;0.30;0.30;;;;;;;7.88;80.94;100661.06;4988946;28;20068;-68
2021/05/15 05:04:34;;;;;;;0.40;0.40;;;;;;;7.84;81.64;100662.22;4984872;28;20034;-67
2021/05/15 05:06:59;;;;;;;0.40;0.40;;;;;;;7.76;81.99;100648.97;4980600;28;20034;-67
2021/05/15 05:09:25;;;;;;;0.30;0.30;;;;;;;7.85;82.09;100656.94;4983518;28;20049;-67
2021/05/15 05:11:50;;;;;;;0.40;0.40;;;;;;;7.84;nan;100652.69;4982958;28;20034;-67
2021/05/15 05:14:16;;;;;;;0.30;0.30;;;;;;;7.85;81.78;100659.53;4984557;28;20125;-67
2021/05/15 05:16:41;;;;;;;0.50;0.50;;;;;;;7.80;81.27;100655.59;4983177;28;20050;-67
2021/05/15 05:19:09;;;;;;;0.38;0.38;;;;;;;7.82;81.09;100662.34;4983769;28;20536;-67
2021/05/15 05:21:34;;;;;;;0.65;0.50;;;;;;;7.80;81.58;100653.00;4983403;28;20042;-67
2021/05/15 05:24:00;;;;;;;0.35;0.35;;;;;;;7.80;81.38;100648.66;4983729;28;20093;-67
2021/05/15 05:26:25;;;;;;;0.30;0.30;;;;;;;7.79;81.59;100625.44;4984134;28;20050;-67
2021/05/15 05:28:51;;;;;;;0.30;0.30;;;;;;;7.81;81.61;100642.53;4983716;28;20069;-67
2021/05/15 05:31:18;;;;;;;0.38;0.38;;;;;;;7.86;81.38;100647.41;4984252;28;20037;-67
2021/05/15 05:33:45;;;;;;;0.38;0.38;;;;;;;7.84;81.09;100638.91;4984145;28;20073;-67
2021/05/15 05:36:12;;;;;;;0.40;0.40;;;;;;;7.80;81.23;100646.06;4983374;28;20034;-67
2021/05/15 05:38:38;;;;;;;0.30;0.30;;;;;;;7.85;81.48;100648.34;4981053;28;20034;-67
2021/05/15 05:41:03;;;;;;;0.40;0.40;;;;;;;7.93;81.38;100646.06;4984183;28;20559;-67
2021/05/15 05:43:29;;;;;;;0.40;0.40;;;;;;;7.88;81.99;100635.16;4966937;28;20176;-67
2021/05/15 05:45:55;;;;;;;0.30;0.30;;;;;;;8.02;80.32;100645.41;4982356;28;20500;-67
2021/05/15 05:48:20;;;;;;;0.40;0.30;;;;;;;8.06;81.23;100640.81;4982643;28;20085;-67
2021/05/15 05:50:46;;;;;;;0.40;0.40;;;;;;;8.20;81.13;100635.50;4982615;28;20155;-67
2021/05/15 05:53:13;;;;;;;0.30;0.30;;;;;;;8.19;81.21;100628.66;4983863;28;20038;-67
2021/05/15 05:55:39;;;;;;;0.28;0.28;;;;;;;8.24;81.70;100629.16;4982536;28;20112;-67
2021/05/15 05:58:05;;;;;;;0.40;0.40;;;;;;;8.21;80.65;100626.78;4983285;28;20034;-67
2021/05/15 06:00:32;;;;;;;0.30;0.30;;;;;;;8.25;80.53;100630.81;4982578;28;20053;-68
2021/05/15 06:02:57;;;;;;;0.40;0.40;;;;;;;8.27;81.04;100638.50;4984099;28;20061;-67
2021/05/15 06:05:23;;;;;;;0.43;0.30;;;;;;;8.31;80.78;100635.56;4982429;28;20034;-67
2021/05/15 06:07:49;;;;;;;0.50;0.50;;;;;;;8.34;81.21;100627.59;4981096;28;20046;-67
2021/05/15 06:10:14;;;;;;;0.40;0.40;;;;;;;8.46;80.88;100625.91;4977947;28;20117;-67
2021/05/15 06:12:43;;;;;;;0.40;0.40;;;;;;;8.43;82.14;100626.91;4980329;28;20397;-67
2021/05/15 06:15:09;;;;;;;0.32;0.32;;;;;;;8.32;81.12;100603.50;4983937;28;20044;-67
2021/05/15 06:17:36;;;;;;;0.40;0.40;;;;;;;8.51;81.50;100622.97;4984651;28;20121;-67
2021/05/15 06:20:03;;;;;;;0.32;0.32;;;;;;;8.28;81.23;100593.47;4983791;28;20050;-67
2021/05/15 06:22:28;;;;;;;0.30;0.30;;;;;;;8.52;81.26;100622.84;4998394;28;20468;-67
2021/05/15 06:24:54;;;;;;;0.30;0.30;;;;;;;8.53;80.93;100614.13;4984430;28;20053;-67
2021/05/15 06:27:20;;;;;;;0.25;0.25;;;;;;;8.63;79.35;100612.53;4988952;28;20065;-67
2021/05/15 06:29:45;;;;;;;0.30;0.30;;;;;;;8.59;79.49;100600.69;4980913;28;20042;-67
2021/05/15 06:32:11;;;;;;;0.38;0.35;;;;;;;8.66;79.63;100593.31;4977032;28;20042;-67
2021/05/15 06:34:36;;;;;;;0.32;0.32;;;;;;;8.88;79.59;100615.91;4994839;28;20038;-67
2021/05/15 06:37:03;;;;;;;0.40;0.40;;;;;;;8.91;79.32;100610.47;4998396;28;20117;-67
2021/05/15 06:39:28;;;;;;;0.40;0.30;;;;;;;9.08;79.80;100615.25;4984868;28;20038;-67
2021/05/15 06:41:54;;;;;;;0.32;0.32;;;;;;;9.23;79.11;100615.88;4984365;28;20042;-67
2021/05/15 06:44:19;;;;;;;0.40;0.40;;;;;;;9.22;78.57;100602.06;4983112;28;20053;-68
2021/05/15 06:46:47;;;;;;;0.30;0.30;;;;;;;9.24;77.09;100604.53;4982312;28;20062;-67
2021/05/15 06:49:13;;;;;;;0.30;0.30;;;;;;;9.37;77.75;100595.69;4983408;28;20578;-67
2021/05/15 06:51:38;;;;;;;0.30;0.30;;;;;;;9.45;76.38;100600.31;4980580;28;20045;-68
2021/05/15 06:54:04;;;;;;;0.30;0.30;;;;;;;9.54;76.67;100609.19;4983682;28;20066;-68
2021/05/15 06:56:29;;;;;;;0.40;0.40;;;;;;;9.53;77.08;100613.56;4979123;28;20129;-67
2021/05/15 06:58:55;;;;;;;0.20;0.20;;;;;;;9.43;77.28;100580.56;4981646;28;20066;-68
2021/05/15 07:01:21;;;;;;;0.30;0.30;;;;;;;9.61;76.75;100605.97;4983733;28;20177;-68
2021/05/15 07:03:47;;;;;;;0.30;0.30;;;;;;;9.54;75.49;100604.81;4986608;28;20108;-68
2021/05/15 07:06:12;;;;;;;0.30;0.30;;;;;;;9.35;76.03;100601.97;4983880;28;20484;-68
2021/05/15 07:08:38;;;;;;;0.30;0.30;;;;;;;9.33;76.61;100599.44;4984953;28;20047;-68
2021/05/15 07:11:03;;;;;;;0.40;0.40;;;;;;;9.30;75.57;100593.66;4981927;28;20058;-68
2021/05/15 07:13:29;;;;;;;0.30;0.30;;;;;;;9.19;76.54;100570.28;4981251;28;20034;-68
2021/05/15 07:15:55;;;;;;;0.38;0.38;;;;;;;9.20;76.92;100567.56;4981552;28;20110;-68
2021/05/15 07:18:20;;;;;;;0.63;0.30;;;;;;;9.35;77.30;100594.16;4980623;28;20078;-68
2021/05/15 07:20:46;;;;;;;0.30;0.30;;;;;;;9.35;76.15;100599.38;4983101;28;20043;-68
2021/05/15 07:23:12;;;;;;;0.73;0.30;;;;;;;9.16;76.44;100589.53;4981631;28;20145;-68
2021/05/15 07:25:38;;;;;;;0.43;0.43;;;;;;;9.21;76.57;100591.78;4980478;28;20034;-68
2021/05/15 07:28:04;;;;;;;0.35;0.35;;;;;;;9.20;77.13;100590.97;4982477;28;21787;-69
2021/05/15 07:30:30;;;;;;;2.20;0.38;;;;;;;9.25;76.60;100582.81;4983204;28;20038;-68
2021/05/15 07:33:00;;;;;;;0.30;0.30;;;;;;;9.21;77.28;100578.78;5002036;28;20523;-68
2021/05/15 07:35:26;;;;;;;0.20;0.20;;;;;;;9.30;76.90;100591.91;4968714;28;20038;-68
2021/05/15 07:37:51;;;;;;;0.32;0.32;;;;;;;9.24;76.62;100587.19;4986064;28;20465;-68
2021/05/15 07:40:17;;;;;;;0.30;0.30;;;;;;;9.18;77.50;100582.47;4953447;28;20042;-68
2021/05/15 07:42:44;;;;;;;0.40;0.40;;;;;;;9.31;77.58;100590.13;4983360;28;20050;-68
2021/05/15 07:45:12;;;;;;;0.40;0.40;;;;;;;9.20;78.33;100570.16;4986091;28;20042;-69
2021/05/15 07:47:38;;;;;;;0.30;0.30;;;;;;;9.33;76.74;100570.88;4984375;28;20567;-68
2021/05/15 07:50:05;;;;;;;0.30;0.30;;;;;;;9.46;77.30;100578.56;4984721;28;20030;-68
2021/05/15 07:52:30;;;;;;;0.30;0.30;;;;;;;9.51;76.99;100589.41;4985502;28;20030;-68
2021/05/15 07:54:56;;;;;;;0.38;0.38;;;;;;;9.52;76.54;100585.09;4985163;28;21057;-68
2021/05/15 07:57:21;;;;;;;0.30;0.30;;;;;;;9.65;76.69;100585.75;4985391;28;20126;-68
2021/05/15 07:59:47;;;;;;;0.40;0.40;;;;;;;9.60;76.04;100573.13;4985303;28;20042;-69
2021/05/15 08:02:12;;;;;;;0.38;0.38;;;;;;;9.56;75.73;100555.28;4984804;28;20042;-68
2021/05/15 08:04:38;;;;;;;0.50;0.38;;;;;;;9.81;75.84;100580.19;4979789;28;20901;-68
2021/05/15 08:07:04;;;;;;;0.40;0.40;;;;;;;9.95;76.19;100582.53;4982959;28;20065;-68
2021/05/15 08:09:30;;;;;;;0.40;0.40;;;;;;;10.04;75.54;100562.75;4984817;28;20418;-68
2021/05/15 08:11:56;;;;;;;0.30;0.30;;;;;;;10.17;74.70;100569.47;4975547;28;20034;-68
2021/05/15 08:14:21;;;;;;;0.40;0.40;;;;;;;10.29;74.89;100589.34;4980915;28;20077;-68
2021/05/15 08:16:47;;;;;;;0.30;0.30;;;;;;;10.24;73.73;100588.91;4977447;28;20754;-68
2021/05/15 08:19:12;;;;;;;0.40;0.40;;;;;;;9.93;74.97;100554.06;4978827;28;20367;-68
2021/05/15 08:21:38;;;;;;;0.35;0.30;;;;;;;10.01;74.39;100571.66;4975681;28;20041;-69
2021/05/15 08:24:04;;;;;;;0.20;0.20;;;;;;;10.14;74.59;100584.50;4978982;28;20255;-68
2021/05/15 08:26:30;;;;;;;0.20;0.20;;;;;;;9.99;74.48;100558.75;4978852;28;20496;-68
2021/05/15 08:28:56;;;;;;;0.30;0.30;;;;;;;10.19;74.22;100584.97;4976499;28;20049;-69
2021/05/15 08:31:23;;;;;;;0.40;0.40;;;;;;;10.08;73.40;100551.19;4971456;28;20042;-68
2021/05/15 08:33:48;;;;;;;0.30;0.30;;;;;;;10.21;73.29;100567.47;4975633;28;20420;-68
2021/05/15 08:36:14;;;;;;;0.35;0.35;;;;;;;10.28;74.27;100555.66;4973000;28;20050;-68
2021/05/15 08:38:40;;;;;;;0.30;0.30;;;;;;;10.41;74.70;100543.28;4974065;28;20106;-68
2021/05/15 08:41:07;;;;;;;0.40;0.40;;;;;;;10.51;73.51;100528.56;4972175;28;20047;-68
2021/05/15 08:43:34;;;;;;;0.32;0.30;;;;;;;10.67;73.08;100540.31;4978691;28;20160;-69
2021/05/15 08:46:03;;;;;;;0.30;0.30;;;;;;;10.82;71.83;100558.13;4977896;28;20128;-68
2021/05/15 08:48:31;;;;;;;0.20;0.20;;;;;;;10.73;71.96;100543.22;4972935;28;20034;-69
2021/05/15 08:50:58;;;;;;;0.40;0.40;;;;;;;10.70;72.46;100548.69;4975334;28;20026;-69
2021/05/15 08:53:24;;;;;;;0.38;0.38;;;;;;;10.72;74.17;100559.00;4977459;28;20042;-68
2021/05/15 08:55:50;;;;;;;0.30;0.30;;;;;;;10.63;74.13;100544.13;4979598;28;20481;-68
2021/05/15 08:58:16;;;;;;;0.43;0.40;;;;;;;10.64;73.17;100546.63;4974808;28;20057;-69
2021/05/15 09:00:42;;;;;;;0.40;0.40;;;;;;;10.71;73.11;100557.34;4961756;28;20367;-68
2021/05/15 09:03:10;;;;;;;0.30;0.30;;;;;;;10.49;73.05;100527.03;4979105;28;20042;-68
2021/05/15 09:05:42;;;;;;;0.43;0.43;;;;;;;10.63;73.05;100546.75;4981306;28;20584;-68
2021/05/15 09:08:10;;;;;;;0.70;0.40;;;;;;;10.63;74.09;100542.34;4977918;28;20034;-68
2021/05/15 09:10:38;;;;;;;0.50;0.40;;;;;;;10.68;73.72;100548.00;4979931;28;20030;-69
2021/05/15 09:13:15;;;;;;;0.40;0.40;;;;;;;10.88;72.69;100560.19;4979486;28;20034;-68
2021/05/15 09:15:58;;;;;;;0.35;0.35;;;;;;;10.73;72.30;100529.38;4977403;28;20361;-68
2021/05/15 09:18:28;;;;;;;0.43;0.40;;;;;;;10.81;73.18;100553.03;4973863;28;20034;-69
2021/05/15 09:20:57;;;;;;;0.50;0.47;;;;;;;10.77;72.36;100536.84;4965045;28;20073;-68
2021/05/15 09:23:28;;;;;;;0.50;0.50;;;;;;;10.68;73.09;100553.22;4973292;28;20061;-68
2021/05/15 09:25:59;;;;;;;0.57;0.57;;;;;;;10.68;73.33;100531.56;4977771;28;20037;-68
2021/05/15 09:28:46;;;;;;;0.65;0.65;;;;;;;10.59;73.68;100552.22;4992719;28;20504;-68
2021/05/15 09:31:32;;;;;;;0.57;0.57;;;;;;;10.63;74.22;100549.34;4978912;28;20353;-69
2021/05/15 09:34:04;;;;;;;0.90;0.50;;;;;;;10.58;73.91;100532.28;4977599;28;20038;-69
2021/05/15 09:36:41;;;;;;;0.60;0.60;;;;;;;10.82;73.86;100532.06;4980860;28;20066;-68
2021/05/15 09:39:11;;;;;;;0.50;0.50;;;;;;;10.97;73.24;100534.34;4978668;28;20038;-68
2021/05/15 09:41:48;;;;;;;0.63;0.60;;;;;;;11.14;73.39;100526.75;4969664;28;20093;-69
2021/05/15 09:44:16;;;;;;;0.50;0.50;;;;;;;11.33;73.91;100518.19;4979817;28;20737;-68
2021/05/15 09:46:44;;;;;;;0.77;0.60;;;;;;;11.47;71.98;100520.41;4979547;28;20034;-68
2021/05/15 09:49:10;;;;;;;0.50;0.50;;;;;;;11.38;71.69;100529.03;4977647;28;20038;-68
2021/05/15 09:51:48;;;;;;;0.60;0.60;;;;;;;11.23;72.59;100500.84;4982717;28;20030;-68
2021/05/15 09:54:25;;;;;;;0.40;0.40;;;;;;;11.19;73.25;100519.38;4979508;28;20129;-69
2021/05/15 09:57:10;;;;;;;0.47;0.47;;;;;;;10.98;72.86;100478.69;4976300;28;20049;-68
2021/05/15 09:59:39;;;;;;;0.50;0.50;;;;;;;10.86;74.11;100467.50;4977377;28;20045;-68
2021/05/15 10:02:07;;;;;;;0.85;0.60;;;;;;;11.17;73.54;100507.44;4974860;28;20049;-68
2021/05/15 10:04:33;;;;;;;0.68;0.52;;;;;;;11.02;73.04;100491.31;4978261;28;20536;-69
2021/05/15 10:07:00;;;;;;;1.67;0.57;;;;;;;11.04;73.83;100502.41;4982202;28;20038;-69
2021/05/15 10:09:36;;;;;;;0.40;0.40;;;;;;;11.17;73.07;100500.44;4996081;28;20053;-68
2021/05/15 10:12:04;;;;;;;1.15;0.60;;;;;;;11.26;73.87;100505.78;4977385;28;20038;-68
2021/05/15 10:14:31;;;;;;;0.82;0.50;;;;;;;11.38;73.17;100502.97;4996591;28;20365;-69
2021/05/15 10:16:57;;;;;;;0.50;0.50;;;;;;;11.36;72.54;100496.25;4977425;28;20370;-68
2021/05/15 10:19:24;;;;;;;0.77;0.50;;;;;;;11.47;73.12;100498.72;4980784;28;20046;-68
2021/05/15 10:21:50;;;;;;;0.82;0.50;;;;;;;11.55;71.82;100491.09;4972993;28;20042;-69
2021/05/15 10:24:23;;;;;;;0.52;0.52;;;;;;;11.51;72.31;100487.09;4988580;28;20093;-68
2021/05/15 10:27:00;;;;;;;0.65;0.60;;;;;;;11.44;72.44;100492.00;4986573;28;21464;-68
2021/05/15 10:29:53;;;;;;;1.15;0.70;;;;;;;11.40;73.27;100490.63;4979850;28;20413;-69
2021/05/15 10:32:22;;;;;;;0.60;0.60;;;;;;;11.42;72.67;100480.88;4978344;28;20533;-68
2021/05/15 10:35:00;;;;;;;0.80;0.70;;;;;;;11.32;72.61;100464.41;4982904;28;20809;-68
2021/05/15 10:37:28;;;;;;;1.13;0.80;;;;;;;11.45;72.36;100478.00;4979328;28;20070;-68
2021/05/15 10:39:54;;;;;;;0.60;0.60;;;;;;;11.65;72.21;100472.84;4973412;28;20034;-68
2021/05/15 10:42:31;;;;;;;0.63;0.63;;;;;;;11.75;73.23;100458.84;4971887;28;20054;-68
2021/05/15 10:44:57;;;;;;;0.50;0.50;;;;;;;11.95;72.49;100454.50;4978670;28;20038;-68
2021/05/15 10:47:23;;;;;;;0.40;0.40;;;;;;;11.98;70.30;100463.84;4978232;28;20061;-68
2021/05/15 10:49:49;;;;;;;0.55;0.55;;;;;;;12.00;71.47;100459.31;4985802;28;20137;-69
2021/05/15 10:52:22;;;;;;;0.57;0.57;;;;;;;12.04;71.14;100460.69;4977993;28;20034;-68
2021/05/15 10:54:59;;;;;;;0.60;0.60;;;;;;;11.92;70.77;100444.34;4974556;28;20049;-68
2021/05/15 10:57:27;;;;;;;0.40;0.40;;;;;;;11.95;70.64;100449.28;4977447;28;20030;-69
2021/05/15 10:59:57;;;;;;;0.47;0.47;;;;;;;12.09;70.72;100456.72;4974971;28;20046;-69
2021/05/15 11:02:40;;;;;;;0.50;0.50;;;;;;;12.26;71.28;100455.19;4975261;28;20152;-68
2021/05/15 11:05:14;;;;;;;0.52;0.50;;;;;;;12.22;70.84;100447.78;4977508;28;20050;-69
2021/05/15 11:07:40;;;;;;;;;;;;;;;12.15;70.54;100451.88;4983511;28;20194;-69
2021/05/15 11:10:09;;;;;;;0.60;0.60;;;;;;;11.94;71.75;100433.78;4980869;28;19924;-68
2021/05/15 11:12:43;;;;;;;0.60;0.60;;;;;;;11.97;71.01;100459.59;4981419;28;20030;-69
2021/05/15 11:15:29;;;;;;;0.60;0.60;;;;;;;11.85;71.32;100448.47;4993612;28;20045;-69
2021/05/15 11:18:04;;;;;;;0.45;0.45;;;;;;;11.66;71.83;100424.91;5000522;28;20092;-68
2021/05/15 11:20:49;;;;;;;0.70;0.70;;;;;;;11.66;72.50;100430.13;4991587;28;20381;-69
2021/05/15 11:23:19;;;;;;;0.70;0.70;;;;;;;11.84;72.46;100444.19;4960554;28;20453;-69
2021/05/15 11:26:05;;;;;;;0.60;0.60;;;;;;;11.82;71.41;100432.25;4986254;28;20038;-69
2021/05/15 11:28:32;;;;;;;0.70;0.70;;;;;;;11.74;72.08;100438.13;4983067;28;20093;-69
2021/05/15 11:30:59;;;;;;;0.70;0.70;;;;;;;11.72;72.61;100438.25;4985531;28;20054;-68
2021/05/15 11:33:26;;;;;;;0.52;0.52;;;;;;;11.72;72.46;100434.84;4983248;28;20439;-68